createdAt,value
2018-02-10T00:01:36.886Z,38.00
2018-02-10T00:04:07.275Z,40.97
2018-02-10T00:06:37.554Z,40.70
2018-02-10T00:09:08.246Z,37.00
2018-02-10T00:11:39.780Z,39.60
2018-02-10T00:14:10.195Z,37.43
2018-02-10T00:16:40.443Z,31.63
2018-02-10T00:19:10.946Z,40.13
2018-02-10T00:21:41.691Z,31.40
2018-02-10T00:24:12.090Z,39.30
2018-02-10T00:26:42.111Z,44.80
2018-02-10T00:29:12.426Z,39.63
2018-02-10T00:31:43.059Z,41.10
2018-02-10T00:34:13.191Z,36.40
2018-02-10T00:36:43.436Z,36.20
2018-02-10T00:39:13.434Z,36.50
2018-02-10T00:41:43.721Z,43.33
2018-02-10T00:44:14.057Z,33.40
2018-02-10T00:46:44.027Z,34.37
2018-02-10T00:49:14.499Z,37.13
2018-02-10T00:51:44.646Z,35.13
2018-02-10T00:54:14.900Z,31.20
2018-02-10T00:56:45.626Z,28.80
2018-02-10T00:59:18.080Z,28.00
2018-02-10T01:01:48.390Z,34.03
2018-02-10T01:04:18.355Z,29.10
2018-02-10T01:06:49.545Z,31.80
2018-02-10T01:09:19.743Z,35.07
2018-02-10T01:11:49.796Z,42.53
2018-02-10T01:14:21.530Z,36.40
2018-02-10T01:16:52.170Z,30.23
2018-02-10T01:19:22.477Z,32.50
2018-02-10T01:21:53.562Z,27.63
2018-02-10T01:24:23.905Z,31.07
2018-02-10T01:26:54.280Z,26.00
2018-02-10T01:29:24.531Z,29.63
2018-02-10T01:31:55.702Z,25.13
2018-02-10T01:34:26.886Z,34.53
2018-02-10T01:36:57.550Z,31.87
2018-02-10T01:39:27.716Z,37.90
2018-02-10T01:41:57.714Z,27.63
2018-02-10T01:44:28.728Z,28.20
2018-02-10T01:46:59.522Z,25.93
2018-02-10T01:49:29.938Z,28.10
2018-02-10T01:51:59.891Z,23.43
2018-02-10T01:54:30.104Z,24.23
2018-02-10T01:57:01.018Z,34.23
2018-02-10T01:59:31.330Z,31.57
2018-02-10T02:02:01.683Z,36.20
2018-02-10T02:04:31.730Z,30.20
2018-02-10T02:07:02.070Z,28.10
2018-02-10T02:09:32.212Z,30.13
2018-02-10T02:12:02.560Z,35.57
2018-02-10T02:14:32.957Z,28.57
2018-02-10T02:17:02.999Z,30.53
2018-02-10T02:19:33.126Z,25.47
2018-02-10T02:22:03.656Z,23.67
2018-02-10T02:24:34.091Z,29.33
2018-02-10T02:27:04.272Z,26.40
2018-02-10T02:29:35.105Z,32.63
2018-02-10T02:32:05.441Z,20.70
2018-02-10T02:34:37.701Z,32.23
2018-02-10T02:37:07.927Z,36.53
2018-02-10T02:39:38.349Z,29.13
2018-02-10T02:42:08.674Z,33.07
2018-02-10T02:44:38.892Z,36.93
2018-02-10T02:47:09.813Z,26.93
2018-02-10T02:49:40.983Z,28.23
2018-02-10T02:52:11.168Z,32.63
2018-02-10T02:54:41.333Z,27.73
2018-02-10T02:57:13.127Z,28.67
2018-02-10T03:02:21.054Z,31.83
2018-02-10T03:04:51.639Z,36.13
2018-02-10T03:07:21.814Z,32.57
2018-02-10T03:09:52.711Z,26.23
2018-02-10T03:12:26.233Z,29.30
2018-02-10T03:14:57.807Z,25.73
2018-02-10T03:17:28.128Z,33.97
2018-02-10T03:19:59.058Z,35.07
2018-02-10T03:22:30.237Z,33.40
2018-02-10T03:25:00.680Z,26.80
2018-02-10T03:27:30.881Z,22.60
2018-02-10T03:30:01.468Z,32.67
2018-02-10T03:32:32.519Z,37.47
2018-02-10T03:35:03.616Z,35.97
2018-02-10T03:37:33.913Z,27.10
2018-02-10T03:40:04.961Z,24.27
2018-02-10T03:42:35.293Z,33.90
2018-02-10T03:45:05.657Z,28.27
2018-02-10T03:47:35.977Z,24.73
2018-02-10T03:50:06.852Z,25.30
2018-02-10T03:52:37.428Z,29.20
2018-02-10T03:55:09.352Z,20.63
2018-02-10T03:57:39.365Z,28.53
2018-02-10T04:00:09.607Z,24.67
2018-02-10T04:02:40.545Z,27.30
2018-02-10T04:05:10.871Z,27.63
2018-02-10T04:07:42.156Z,30.80
2018-02-10T04:10:12.695Z,26.33
2018-02-10T04:12:43.235Z,28.33
2018-02-10T04:15:13.613Z,24.73
2018-02-10T04:17:45.131Z,31.43
2018-02-10T04:20:16.070Z,24.43
2018-02-10T04:22:47.079Z,27.33
2018-02-10T04:25:17.476Z,26.17
2018-02-10T04:27:49.337Z,31.73
2018-02-10T04:30:19.658Z,27.97
2018-02-10T04:32:50.349Z,25.83
2018-02-10T04:35:20.778Z,36.83
2018-02-10T04:37:51.693Z,23.53
2018-02-10T04:40:22.488Z,29.17
2018-02-10T04:42:52.871Z,28.40
2018-02-10T04:45:23.228Z,26.60
2018-02-10T04:47:53.315Z,24.77
2018-02-10T04:50:23.928Z,31.90
2018-02-10T04:52:54.200Z,29.03
2018-02-10T04:55:24.656Z,27.90
2018-02-10T04:57:55.170Z,25.80
2018-02-10T05:00:26.203Z,26.47
2018-02-10T05:02:56.535Z,24.57
2018-02-10T05:05:26.959Z,26.27
2018-02-10T05:07:57.235Z,25.37
2018-02-10T05:10:27.487Z,29.17
2018-02-10T05:12:57.819Z,21.77
2018-02-10T05:15:28.297Z,21.57
2018-02-10T05:17:58.464Z,30.07
2018-02-10T05:20:29.187Z,27.80
2018-02-10T05:22:59.215Z,25.37
2018-02-10T05:25:29.546Z,28.83
2018-02-10T05:27:59.752Z,27.17
2018-02-10T05:30:30.351Z,29.30
2018-02-10T05:33:00.538Z,36.87
2018-02-10T05:35:30.539Z,29.70
2018-02-10T05:38:01.333Z,26.67
2018-02-10T05:40:31.581Z,33.43
2018-02-10T05:43:02.276Z,21.50
2018-02-10T05:45:32.576Z,30.13
2018-02-10T05:48:03.128Z,26.80
2018-02-10T05:50:33.666Z,24.87
2018-02-10T05:53:04.366Z,28.53
2018-02-10T05:55:34.726Z,30.70
2018-02-10T05:58:04.808Z,29.30
2018-02-10T06:00:35.611Z,26.73
2018-02-10T06:03:06.355Z,31.37
2018-02-10T06:05:36.371Z,23.57
2018-02-10T06:08:07.149Z,30.53
2018-02-10T06:10:37.423Z,28.03
2018-02-10T06:13:07.841Z,25.93
2018-02-10T06:15:38.100Z,26.67
2018-02-10T06:18:08.446Z,24.30
2018-02-10T06:20:38.883Z,26.40
2018-02-10T06:23:09.252Z,28.30
2018-02-10T06:25:39.712Z,35.93
2018-02-10T06:28:11.099Z,26.70
2018-02-10T06:30:42.359Z,33.27
2018-02-10T06:33:12.663Z,34.83
2018-02-10T06:35:47.191Z,29.27
2018-02-10T06:38:37.009Z,29.20
2018-02-10T06:41:13.593Z,30.43
2018-02-10T06:43:48.663Z,22.57
2018-02-10T06:46:19.288Z,30.37
2018-02-10T06:48:49.735Z,28.00
2018-02-10T06:51:20.247Z,27.40
2018-02-10T06:53:51.527Z,27.83
2018-02-10T06:56:21.763Z,26.80
2018-02-10T06:58:52.902Z,37.10
2018-02-10T07:01:23.636Z,24.23
2018-02-10T07:03:54.139Z,29.27
2018-02-10T07:06:24.565Z,34.20
2018-02-10T07:08:55.842Z,32.07
2018-02-10T07:11:27.732Z,28.20
2018-02-10T07:13:58.845Z,25.67
2018-02-10T07:16:29.965Z,26.07
2018-02-10T07:19:00.260Z,33.23
2018-02-10T07:21:30.287Z,27.17
2018-02-10T07:24:01.122Z,32.10
2018-02-10T07:26:31.174Z,26.47
2018-02-10T07:29:01.337Z,28.90
2018-02-10T07:31:32.552Z,33.50
2018-02-10T07:34:03.799Z,34.93
2018-02-10T07:36:34.288Z,31.00
2018-02-10T07:39:04.492Z,32.47
2018-02-10T07:41:35.621Z,35.23
2018-02-10T07:44:05.646Z,29.73
2018-02-10T07:46:35.923Z,42.30
2018-02-10T07:49:05.950Z,30.30
2018-02-10T07:51:36.774Z,31.83
2018-02-10T07:54:07.868Z,36.50
2018-02-10T07:56:38.470Z,34.57
2018-02-10T07:59:08.964Z,42.00
2018-02-10T08:01:39.100Z,33.10
2018-02-10T08:04:10.275Z,32.03
2018-02-10T08:06:40.759Z,35.00
2018-02-10T08:09:10.870Z,38.77
2018-02-10T08:11:41.324Z,35.17
2018-02-10T08:14:11.375Z,35.30
2018-02-10T08:16:41.410Z,33.63
2018-02-10T08:19:12.376Z,27.53
2018-02-10T08:21:42.479Z,36.93
2018-02-10T08:24:12.791Z,31.03
2018-02-10T08:26:42.970Z,29.70
2018-02-10T08:29:13.663Z,29.80
2018-02-10T08:31:43.976Z,28.70
2018-02-10T08:34:14.881Z,41.27
2018-02-10T08:36:45.172Z,27.57
2018-02-10T08:39:15.250Z,33.10
2018-02-10T08:41:45.693Z,34.00
2018-02-10T08:44:15.763Z,32.13
2018-02-10T08:51:22.688Z,29.50
2018-02-10T08:53:53.580Z,37.23
2018-02-10T08:56:24.524Z,41.50
2018-02-10T08:58:54.587Z,41.50
2018-02-10T09:01:25.026Z,46.10
2018-02-10T09:03:55.191Z,46.90
2018-02-10T09:06:25.546Z,53.63
2018-02-10T09:08:55.583Z,55.90
2018-02-10T09:11:26.111Z,44.77
2018-02-10T09:13:57.250Z,47.60
2018-02-10T09:16:27.307Z,46.03
2018-02-10T09:18:57.388Z,45.53
2018-02-10T09:21:29.658Z,59.00
2018-02-10T09:23:59.808Z,56.63
2018-02-10T09:26:30.699Z,53.60
2018-02-10T09:29:00.723Z,51.97
2018-02-10T09:31:31.228Z,52.67
2018-02-10T09:34:01.323Z,48.10
2018-02-10T09:36:31.663Z,66.60
2018-02-10T09:39:01.699Z,63.83
2018-02-10T09:41:31.800Z,47.73
2018-02-10T09:44:01.820Z,55.80
2018-02-10T09:46:31.869Z,64.93
2018-02-10T09:49:02.104Z,65.57
2018-02-10T09:51:32.167Z,70.23
2018-02-10T09:54:02.304Z,51.57
2018-02-10T09:56:32.403Z,56.90
2018-02-10T09:59:02.778Z,61.30
2018-02-10T10:01:32.914Z,52.50
2018-02-10T10:04:02.980Z,63.43
2018-02-10T10:06:33.007Z,56.00
2018-02-10T10:09:03.164Z,69.53
2018-02-10T10:11:33.731Z,61.37
2018-02-10T10:14:03.772Z,69.67
2018-02-10T10:16:34.071Z,55.80
2018-02-10T10:19:04.191Z,79.37
2018-02-10T10:21:34.349Z,61.00
2018-02-10T10:24:04.892Z,70.20
2018-02-10T10:26:34.968Z,61.20
2018-02-10T10:29:05.140Z,63.10
2018-02-10T10:31:35.353Z,57.30
2018-02-10T10:34:05.440Z,59.43
2018-02-10T10:36:35.587Z,65.03
2018-02-10T10:39:06.213Z,55.53
2018-02-10T10:41:36.328Z,57.67
2018-02-10T10:44:07.175Z,58.73
2018-02-10T10:46:38.115Z,52.77
2018-02-10T10:49:08.477Z,62.07
2018-02-10T10:51:38.522Z,53.57
2018-02-10T10:54:09.054Z,51.63
2018-02-10T10:56:39.260Z,57.47
2018-02-10T10:59:09.387Z,46.37
2018-02-10T11:01:39.696Z,51.63
2018-02-10T11:04:10.092Z,47.23
2018-02-10T11:06:40.711Z,44.77
2018-02-10T11:09:12.233Z,58.37
2018-02-10T11:11:42.435Z,51.87
2018-02-10T11:14:12.688Z,55.70
2018-02-10T11:16:42.752Z,47.33
2018-02-10T11:19:12.979Z,46.17
2018-02-10T11:21:43.099Z,51.67
2018-02-10T11:24:13.571Z,47.80
2018-02-10T11:26:43.677Z,46.40
2018-02-10T11:29:13.807Z,46.00
2018-02-10T11:31:43.954Z,46.90
2018-02-10T11:34:15.228Z,41.03
2018-02-10T11:36:45.279Z,44.87
2018-02-10T11:39:15.331Z,44.10
2018-02-10T11:41:45.373Z,45.77
2018-02-10T11:44:15.847Z,46.87
2018-02-10T11:46:45.940Z,52.83
2018-02-10T11:49:15.979Z,39.17
2018-02-10T11:51:46.190Z,41.87
2018-02-10T11:54:16.350Z,44.57
2018-02-10T11:56:46.391Z,39.20
2018-02-10T11:59:17.310Z,42.03
2018-02-10T12:01:54.919Z,45.10
2018-02-10T12:04:32.049Z,56.63
2018-02-10T12:08:37.999Z,44.37
2018-02-10T12:11:11.024Z,43.73
2018-02-10T12:13:46.157Z,47.00
2018-02-10T12:16:23.783Z,45.47
2018-02-10T12:19:00.192Z,33.50
2018-02-10T12:21:36.457Z,44.63
2018-02-10T12:24:13.127Z,42.60
2018-02-10T12:26:45.049Z,42.30
2018-02-10T12:29:15.397Z,48.07
2018-02-10T12:31:45.404Z,48.10
2018-02-10T12:34:16.457Z,45.00
2018-02-10T12:36:46.499Z,58.17
2018-02-10T12:39:16.577Z,38.53
2018-02-10T12:41:46.634Z,48.17
2018-02-10T12:44:17.316Z,40.30
2018-02-10T12:46:47.467Z,39.80
2018-02-10T12:49:23.387Z,39.00
2018-02-10T12:51:54.245Z,36.20
2018-02-10T12:54:24.915Z,39.70
2018-02-10T12:56:55.455Z,46.00
2018-02-10T12:59:25.673Z,46.87
2018-02-10T13:01:57.063Z,42.07
2018-02-10T13:04:27.126Z,41.13
2018-02-10T13:06:57.623Z,36.97
2018-02-10T13:09:27.749Z,42.53
2018-02-10T13:11:57.805Z,37.70
2018-02-10T13:14:27.936Z,33.67
2018-02-10T13:16:59.093Z,37.97
2018-02-10T13:19:30.005Z,37.43
2018-02-10T13:22:00.114Z,36.47
2018-02-10T13:24:30.250Z,38.73
2018-02-10T13:27:00.343Z,34.00
2018-02-10T13:29:30.559Z,31.73
2018-02-10T13:32:00.691Z,34.67
2018-02-10T13:34:30.836Z,26.07
2018-02-10T13:37:02.016Z,29.60
2018-02-10T13:39:32.450Z,32.23
2018-02-10T13:42:02.622Z,32.83
2018-02-10T13:44:34.863Z,25.07
2018-02-10T13:47:05.236Z,29.50
2018-02-10T13:49:35.442Z,36.90
2018-02-10T13:52:06.363Z,27.10
2018-02-10T13:54:36.497Z,27.67
2018-02-10T13:57:07.400Z,29.57
2018-02-10T13:59:37.532Z,32.63
2018-02-10T14:02:09.103Z,25.70
2018-02-10T14:04:39.221Z,41.03
2018-02-10T14:07:09.771Z,27.50
2018-02-10T14:09:40.011Z,30.33
2018-02-10T14:12:10.445Z,33.10
2018-02-10T14:14:41.317Z,38.07
2018-02-10T14:17:12.076Z,31.10
2018-02-10T14:21:12.044Z,35.10
2018-02-10T14:23:42.176Z,28.20
2018-02-10T14:26:12.512Z,24.97
2018-02-10T14:28:42.651Z,25.87
2018-02-10T14:31:12.923Z,33.73
2018-02-10T14:33:43.352Z,27.70
2018-02-10T14:36:13.394Z,24.57
2018-02-10T14:38:43.543Z,23.80
2018-02-10T14:41:14.451Z,30.97
2018-02-10T14:43:44.895Z,27.53
2018-02-10T14:46:15.947Z,26.70
2018-02-10T14:48:46.078Z,28.87
2018-02-10T14:51:17.007Z,22.40
2018-02-10T14:53:48.128Z,29.40
2018-02-10T14:56:18.194Z,19.90
2018-02-10T14:58:48.378Z,22.20
2018-02-10T15:01:18.401Z,26.93
2018-02-10T15:03:50.512Z,28.20
2018-02-10T15:06:20.832Z,32.87
2018-02-10T15:08:52.612Z,23.67
2018-02-10T15:11:22.881Z,30.53
2018-02-10T15:13:53.295Z,30.77
2018-02-10T15:23:08.114Z,27.67
2018-02-10T15:25:38.303Z,32.40
2018-02-10T15:28:08.682Z,26.17
2018-02-10T15:33:54.232Z,31.17
2018-02-10T15:36:24.737Z,43.97
2018-02-10T15:38:55.589Z,28.00
2018-02-10T15:41:25.665Z,37.10
2018-02-10T15:43:55.765Z,36.57
2018-02-10T15:46:25.867Z,29.87
2018-02-10T15:48:56.769Z,36.27
2018-02-10T15:51:27.147Z,40.57
2018-02-10T15:53:57.266Z,38.37
2018-02-10T15:56:27.309Z,36.20
2018-02-10T15:58:57.407Z,43.33
2018-02-10T16:01:27.549Z,39.63
2018-02-10T16:03:57.660Z,43.37
2018-02-10T16:06:27.711Z,43.10
2018-02-10T16:08:57.823Z,38.20
2018-02-10T16:11:28.029Z,38.93
2018-02-10T16:13:58.491Z,43.13
2018-02-10T16:16:29.392Z,41.20
2018-02-10T16:18:59.568Z,42.97
2018-02-10T16:21:30.417Z,39.10
2018-02-10T16:24:00.665Z,40.03
2018-02-10T16:26:30.882Z,48.37
2018-02-10T16:29:01.710Z,49.10
2018-02-10T16:31:31.832Z,42.33
2018-02-10T16:34:03.370Z,42.53
2018-02-10T16:36:34.100Z,49.83
2018-02-10T16:39:04.464Z,44.40
2018-02-10T16:41:34.892Z,47.17
2018-02-10T16:44:04.976Z,49.70
2018-02-10T16:46:35.056Z,39.30
2018-02-10T16:49:05.184Z,32.37
2018-02-10T16:51:36.168Z,45.37
2018-02-10T16:54:06.204Z,46.00
2018-02-10T16:56:36.345Z,50.40
2018-02-10T16:59:06.702Z,54.60
2018-02-10T17:01:36.972Z,43.00
2018-02-10T17:04:07.126Z,40.03
2018-02-10T17:06:38.056Z,39.27
2018-02-10T17:09:09.579Z,42.73
2018-02-10T17:11:39.868Z,42.70
2018-02-10T17:14:11.366Z,54.33
2018-02-10T17:16:43.758Z,49.53
2018-02-10T17:19:14.409Z,37.90
2018-02-10T17:21:45.233Z,42.80
2018-02-10T17:24:16.139Z,46.27
2018-02-10T17:26:46.373Z,39.17
2018-02-10T17:29:16.562Z,47.07
2018-02-10T17:31:46.647Z,47.97
2018-02-10T17:34:16.732Z,39.20
2018-02-10T17:36:46.836Z,41.00
2018-02-10T17:39:16.890Z,57.23
2018-02-10T17:41:48.063Z,47.43
2018-02-10T17:44:18.225Z,39.97
2018-02-10T17:46:48.325Z,43.57
2018-02-10T17:49:18.654Z,35.23
2018-02-10T17:54:13.504Z,46.20
2018-02-10T17:59:19.635Z,46.30
2018-02-10T18:01:49.967Z,38.17
2018-02-10T18:04:20.029Z,48.10
2018-02-10T18:06:51.414Z,40.20
2018-02-10T18:09:23.597Z,46.17
2018-02-10T18:11:54.827Z,34.97
2018-02-10T18:14:25.323Z,40.20
2018-02-10T18:16:55.367Z,60.40
2018-02-10T18:19:26.450Z,42.03
2018-02-10T18:21:57.756Z,54.57
2018-02-10T18:24:28.810Z,44.87
2018-02-10T18:26:59.630Z,46.30
2018-02-10T18:29:30.109Z,78.20
2018-02-10T18:32:01.018Z,49.77
2018-02-10T18:34:31.151Z,45.33
2018-02-10T18:37:01.163Z,42.67
2018-02-10T18:39:31.239Z,49.93
2018-02-10T18:42:01.280Z,53.70
2018-02-10T18:44:31.639Z,37.67
2018-02-10T18:47:02.467Z,49.90
2018-02-10T18:49:32.473Z,45.80
2018-02-10T18:52:02.511Z,55.87
2018-02-10T18:54:33.506Z,42.17
2018-02-10T18:57:04.108Z,49.63
2018-02-10T18:59:34.737Z,54.03
2018-02-10T19:02:04.828Z,58.07
2018-02-10T19:04:34.930Z,47.73
2018-02-10T19:17:50.895Z,47.43
2018-02-10T19:20:20.926Z,44.20
2018-02-10T19:22:52.063Z,50.30
2018-02-10T19:25:22.911Z,41.27
2018-02-10T19:27:53.882Z,55.50
2018-02-10T19:30:23.974Z,54.67
2018-02-10T19:32:54.890Z,41.57
2018-02-10T19:35:25.731Z,49.77
2018-02-10T19:37:56.579Z,58.60
2018-02-10T19:41:56.707Z,47.60
2018-02-10T19:44:26.904Z,52.43
2018-02-10T19:46:57.254Z,59.70
2018-02-10T19:49:27.278Z,55.20
2018-02-10T19:51:57.349Z,59.83
2018-02-10T19:54:43.396Z,54.87
2018-02-10T19:57:14.291Z,57.53
2018-02-10T19:59:44.312Z,59.20
2018-02-10T20:02:15.231Z,67.63
2018-02-10T20:04:45.350Z,59.70
2018-02-10T20:07:15.788Z,68.87
2018-02-10T20:09:45.840Z,67.10
2018-02-10T20:12:16.843Z,59.53
2018-02-10T20:14:48.409Z,55.20
2018-02-10T20:17:19.368Z,57.40
2018-02-10T20:19:49.656Z,62.67
2018-02-10T20:22:20.221Z,68.57
2018-02-10T20:24:50.295Z,65.67
2018-02-10T20:27:21.444Z,66.57
2018-02-10T20:29:51.498Z,59.73
2018-02-10T20:32:21.579Z,55.77
2018-02-10T20:34:51.928Z,51.60
2018-02-10T20:37:22.885Z,61.20
2018-02-10T20:39:53.008Z,55.33
2018-02-10T20:42:23.020Z,56.30
2018-02-10T20:44:53.070Z,46.60
2018-02-10T20:47:23.161Z,45.33
2018-02-10T20:49:53.495Z,53.57
2018-02-10T20:52:23.666Z,38.40
2018-02-10T20:54:53.758Z,39.33
2018-02-10T20:57:24.178Z,38.70
2018-02-10T20:59:55.411Z,44.90
2018-02-10T21:02:25.820Z,44.93
2018-02-10T21:04:57.258Z,36.97
2018-02-10T21:07:27.389Z,34.63
2018-02-10T21:09:57.948Z,34.97
2018-02-10T21:12:28.085Z,37.00
2018-02-10T21:14:58.152Z,42.83
2018-02-10T21:17:28.228Z,42.87
2018-02-10T21:19:58.547Z,32.47
2018-02-10T21:22:31.037Z,33.20
2018-02-10T21:25:01.690Z,31.83
2018-02-10T21:27:31.739Z,33.43
2018-02-10T21:30:01.811Z,30.37
2018-02-10T21:32:32.818Z,27.80
2018-02-10T21:35:02.888Z,26.67
2018-02-10T21:37:33.136Z,34.77
2018-02-10T21:40:05.046Z,32.20
2018-02-10T21:42:36.094Z,30.67
2018-02-10T21:45:06.940Z,24.90
2018-02-10T21:47:37.846Z,30.40
2018-02-10T21:50:09.322Z,26.10
2018-02-10T21:52:39.394Z,25.00
2018-02-10T21:55:09.415Z,26.67
2018-02-10T21:57:39.507Z,27.33
2018-02-10T22:00:09.530Z,32.47
2018-02-10T22:02:39.531Z,26.00
2018-02-10T22:05:09.601Z,21.20
2018-02-10T22:07:39.817Z,31.10
2018-02-10T22:10:10.128Z,30.60
2018-02-10T22:12:40.668Z,20.50
2018-02-10T22:15:11.533Z,22.40
2018-02-10T22:17:42.784Z,22.83
2018-02-10T22:20:12.847Z,21.37
2018-02-10T22:22:43.576Z,21.00
2018-02-10T22:25:13.659Z,21.97
2018-02-10T22:27:43.804Z,21.83
2018-02-10T22:30:14.427Z,17.23
2018-02-10T22:32:44.877Z,16.20
2018-02-10T22:35:14.923Z,20.13
2018-02-10T22:37:46.047Z,15.83
2018-02-10T22:40:16.176Z,16.83
2018-02-10T22:42:46.247Z,18.83
2018-02-10T22:45:16.321Z,18.40
2018-02-10T22:47:47.312Z,19.27
2018-02-10T22:50:17.624Z,10.80
2018-02-10T22:52:49.190Z,19.13
2018-02-10T22:55:19.681Z,14.77
2018-02-10T22:57:50.818Z,12.80
2018-02-10T23:00:21.624Z,18.73
2018-02-10T23:02:52.355Z,13.73
2018-02-10T23:05:22.625Z,13.70
2018-02-10T23:07:53.691Z,13.70
2018-02-10T23:10:23.799Z,15.43
2018-02-10T23:12:54.204Z,12.43
2018-02-10T23:15:24.226Z,11.80
2018-02-10T23:17:54.851Z,11.43
2018-02-10T23:20:24.889Z,11.90
2018-02-10T23:22:55.318Z,15.67
2018-02-10T23:25:25.731Z,18.23
2018-02-10T23:27:55.720Z,11.27
2018-02-10T23:30:25.954Z,11.70
2018-02-10T23:32:56.951Z,9.00
2018-02-10T23:35:31.972Z,10.27
2018-02-10T23:38:02.023Z,12.07
2018-02-10T23:40:32.834Z,14.77
2018-02-10T23:43:02.951Z,14.23
2018-02-10T23:45:33.254Z,12.30
2018-02-10T23:48:03.268Z,7.00
2018-02-10T23:50:33.654Z,11.93
2018-02-10T23:53:04.408Z,10.00
2018-02-10T23:55:34.400Z,18.50
2018-02-10T23:58:05.155Z,9.73
